Mitch, Louisiana
Current Conditions -  °F | °C
As of 8:53 AM on Thursday 18 Dec 2014 (Local Time) from KASD Reporting Station
Scattered Clouds Scattered Clouds  
Wind Chill: 53°   Ceiling: Unl
Heat Index: 53°   Visibility: 10mi
Dew Point: 42°   Wind: 8mph
Humidity: 66%   Direction: 100°E
Pressure: 30.2"   Gusts: NA
Location:  30.7419°N, 89.8828°W
Report Text: KASD 181453Z AUTO 10007KT 10SM SCT042 12/06 A3020 RMK AO2 SLP227 T01170056 51013
Loading
Personal Weather Stations






























Interactive Weather Map New forecast layout! Learn more

10-Day Weather Forecast

Advertisements
Track Severe Weather on mobile